Callander, Canada
Current Conditions -  °F | °C
As of 5:00 PM on Thursday 18 Dec 2014 (Local Time) from CYSB Reporting Station
Clear Clear  
Wind Chill: -20°   Ceiling: Unl
Heat Index: -12°   Visibility: 20mi
Dew Point: -14°   Wind: 10mph
Humidity: 85%   Direction: 350°N
Pressure: 30.12"   Gusts: NA
Location:  46.22°N, 79.36°W
Report Text: CYSB 182200Z 35009KT 20SM SKC M12/M14 A3012 RMK SLP228
Loading
Personal Weather Stations






























Interactive Weather Map New forecast layout! Learn more

10-Day Weather Forecast

Advertisements
Track Severe Weather on mobile